sensor_id;sensor_type;location;lat;lon;timestamp;noise_LAeq;noise_LA_min;noise_LA_max;noise_LA01;noise_LA95
41518;Laerm;27249;48.094;-1.690;2023-08-12T00:01:47;51.61;41.61;65.77;;
41518;Laerm;27249;48.094;-1.690;2023-08-12T00:04:12;46.05;41.68;55.55;;
41518;Laerm;27249;48.094;-1.690;2023-08-12T00:06:39;46.51;41.68;54.77;;
41518;Laerm;27249;48.094;-1.690;2023-08-12T00:09:05;46.71;41.68;59.16;;
41518;Laerm;27249;48.094;-1.690;2023-08-12T00:11:30;49.74;41.06;61.45;;
41518;Laerm;27249;48.094;-1.690;2023-08-12T00:13:55;49.80;41.30;61.32;;
41518;Laerm;27249;48.094;-1.690;2023-08-12T00:16:20;50.52;42.47;61.67;;
41518;Laerm;27249;48.094;-1.690;2023-08-12T00:18:45;46.17;41.68;58.66;;
41518;Laerm;27249;48.094;-1.690;2023-08-12T00:21:11;45.19;41.06;56.18;;
41518;Laerm;27249;48.094;-1.690;2023-08-12T00:23:38;47.13;40.62;61.06;;
41518;Laerm;27249;48.094;-1.690;2023-08-12T00:26:04;47.08;40.53;58.92;;
41518;Laerm;27249;48.094;-1.690;2023-08-12T00:28:29;50.77;41.53;60.68;;
41518;Laerm;27249;48.094;-1.690;2023-08-12T00:30:54;45.44;40.13;54.99;;
41518;Laerm;27249;48.094;-1.690;2023-08-12T00:33:20;46.77;39.58;61.12;;
41518;Laerm;27249;48.094;-1.690;2023-08-12T00:35:45;51.11;41.38;61.75;;
41518;Laerm;27249;48.094;-1.690;2023-08-12T00:38:10;43.96;40.89;51.17;;
41518;Laerm;27249;48.094;-1.690;2023-08-12T00:40:35;52.55;40.98;64.88;;
41518;Laerm;27249;48.094;-1.690;2023-08-12T00:43:01;49.55;39.21;63.08;;
41518;Laerm;27249;48.094;-1.690;2023-08-12T00:45:26;44.19;41.61;48.80;;
41518;Laerm;27249;48.094;-1.690;2023-08-12T00:47:52;50.09;42.41;63.12;;
41518;Laerm;27249;48.094;-1.690;2023-08-12T00:50:18;45.39;41.53;53.99;;
41518;Laerm;27249;48.094;-1.690;2023-08-12T00:52:43;47.70;41.11;57.87;;
41518;Laerm;27249;48.094;-1.690;2023-08-12T00:55:09;43.83;41.38;46.43;;
41518;Laerm;27249;48.094;-1.690;2023-08-12T00:57:34;43.75;41.06;49.97;;
41518;Laerm;27249;48.094;-1.690;2023-08-12T01:00:00;46.06;41.30;55.97;;
41518;Laerm;27249;48.094;-1.690;2023-08-12T01:02:27;49.81;40.80;61.61;;
41518;Laerm;27249;48.094;-1.690;2023-08-12T01:04:52;48.13;40.43;62.81;;
41518;Laerm;27249;48.094;-1.690;2023-08-12T01:07:18;51.73;40.80;64.82;;
41518;Laerm;27249;48.094;-1.690;2023-08-12T01:09:43;49.28;41.61;65.85;;
41518;Laerm;27249;48.094;-1.690;2023-08-12T01:12:20;51.56;41.46;67.18;;
41518;Laerm;27249;48.094;-1.690;2023-08-12T01:14:56;49.54;42.29;62.18;;
41518;Laerm;27249;48.094;-1.690;2023-08-12T01:17:22;49.61;41.75;64.52;;
41518;Laerm;27249;48.094;-1.690;2023-08-12T01:19:48;48.90;41.96;65.36;;
41518;Laerm;27249;48.094;-1.690;2023-08-12T01:22:15;47.16;41.68;59.45;;
41518;Laerm;27249;48.094;-1.690;2023-08-12T01:24:44;46.28;41.75;57.82;;
41518;Laerm;27249;48.094;-1.690;2023-08-12T01:27:10;49.34;40.89;61.20;;
41518;Laerm;27249;48.094;-1.690;2023-08-12T01:29:45;57.48;41.61;75.30;;
41518;Laerm;27249;48.094;-1.690;2023-08-12T01:32:13;49.65;41.38;62.08;;
41518;Laerm;27249;48.094;-1.690;2023-08-12T01:37:13;49.63;41.14;64.77;;
41518;Laerm;27249;48.094;-1.690;2023-08-12T01:39:39;48.47;41.68;61.28;;
41518;Laerm;27249;48.094;-1.690;2023-08-12T01:42:04;44.27;41.30;52.10;;
41518;Laerm;27249;48.094;-1.690;2023-08-12T01:44:30;50.94;40.43;65.33;;
41518;Laerm;27249;48.094;-1.690;2023-08-12T01:46:55;48.76;41.38;59.30;;
41518;Laerm;27249;48.094;-1.690;2023-08-12T01:49:21;45.53;40.80;59.03;;
41518;Laerm;27249;48.094;-1.690;2023-08-12T01:51:48;46.34;41.46;60.24;;
41518;Laerm;27249;48.094;-1.690;2023-08-12T01:54:13;45.98;41.38;57.94;;
41518;Laerm;27249;48.094;-1.690;2023-08-12T01:56:38;45.52;40.98;54.35;;
41518;Laerm;27249;48.094;-1.690;2023-08-12T01:59:03;45.33;40.62;56.18;;
41518;Laerm;27249;48.094;-1.690;2023-08-12T02:01:29;48.73;41.68;61.22;;
41518;Laerm;27249;48.094;-1.690;2023-08-12T02:03:54;50.31;42.16;61.87;;
41518;Laerm;27249;48.094;-1.690;2023-08-12T02:06:19;44.54;41.82;51.64;;
41518;Laerm;27249;48.094;-1.690;2023-08-12T02:08:44;51.34;43.19;63.58;;
41518;Laerm;27249;48.094;-1.690;2023-08-12T02:11:10;51.32;42.65;64.09;;
41518;Laerm;27249;48.094;-1.690;2023-08-12T02:13:35;49.70;41.61;64.15;;
41518;Laerm;27249;48.094;-1.690;2023-08-12T02:16:00;48.19;42.71;56.33;;
41518;Laerm;27249;48.094;-1.690;2023-08-12T02:18:25;50.10;41.96;61.69;;
41518;Laerm;27249;48.094;-1.690;2023-08-12T02:20:50;49.60;41.96;59.89;;
41518;Laerm;27249;48.094;-1.690;2023-08-12T02:23:16;46.92;41.96;55.90;;
41518;Laerm;27249;48.094;-1.690;2023-08-12T02:25:41;44.11;41.96;48.42;;
41518;Laerm;27249;48.094;-1.690;2023-08-12T02:28:06;48.41;42.41;58.17;;
41518;Laerm;27249;48.094;-1.690;2023-08-12T02:30:31;49.87;42.59;62.10;;
41518;Laerm;27249;48.094;-1.690;2023-08-12T02:32:57;52.86;42.22;62.55;;
41518;Laerm;27249;48.094;-1.690;2023-08-12T02:35:22;47.22;42.35;59.15;;
41518;Laerm;27249;48.094;-1.690;2023-08-12T02:37:47;52.62;42.22;64.74;;
41518;Laerm;27249;48.094;-1.690;2023-08-12T02:40:13;54.41;42.59;66.60;;
41518;Laerm;27249;48.094;-1.690;2023-08-12T02:42:38;50.12;42.09;63.90;;
41518;Laerm;27249;48.094;-1.690;2023-08-12T02:45:03;48.29;41.53;58.28;;
41518;Laerm;27249;48.094;-1.690;2023-08-12T02:47:29;45.90;40.89;57.92;;
41518;Laerm;27249;48.094;-1.690;2023-08-12T02:49:54;45.64;42.16;58.39;;
41518;Laerm;27249;48.094;-1.690;2023-08-12T02:52:19;46.81;41.68;56.38;;
41518;Laerm;27249;48.094;-1.690;2023-08-12T02:54:44;49.44;42.09;62.94;;
41518;Laerm;27249;48.094;-1.690;2023-08-12T02:57:10;44.15;41.68;47.59;;
41518;Laerm;27249;48.094;-1.690;2023-08-12T02:59:35;49.27;42.29;60.55;;
41518;Laerm;27249;48.094;-1.690;2023-08-12T03:02:00;44.53;42.03;55.69;;
41518;Laerm;27249;48.094;-1.690;2023-08-12T03:04:25;47.49;42.13;56.37;;
41518;Laerm;27249;48.094;-1.690;2023-08-12T03:06:51;50.90;42.03;61.81;;
41518;Laerm;27249;48.094;-1.690;2023-08-12T03:09:16;44.52;41.89;50.31;;
41518;Laerm;27249;48.094;-1.690;2023-08-12T03:11:43;46.13;41.61;54.47;;
41518;Laerm;27249;48.094;-1.690;2023-08-12T03:14:08;46.57;42.53;57.56;;
41518;Laerm;27249;48.094;-1.690;2023-08-12T03:16:34;50.80;42.93;64.24;;
41518;Laerm;27249;48.094;-1.690;2023-08-12T03:18:59;44.37;41.96;54.17;;
41518;Laerm;27249;48.094;-1.690;2023-08-12T03:21:24;48.81;42.71;61.35;;
41518;Laerm;27249;48.094;-1.690;2023-08-12T03:23:50;46.92;40.62;63.67;;
41518;Laerm;27249;48.094;-1.690;2023-08-12T03:26:15;48.81;42.65;60.86;;
41518;Laerm;27249;48.094;-1.690;2023-08-12T03:28:40;47.29;42.22;57.32;;
41518;Laerm;27249;48.094;-1.690;2023-08-12T03:31:06;49.46;41.82;61.59;;
41518;Laerm;27249;48.094;-1.690;2023-08-12T03:33:31;48.66;42.03;58.69;;
41518;Laerm;27249;48.094;-1.690;2023-08-12T03:35:57;50.91;41.89;60.54;;
41518;Laerm;27249;48.094;-1.690;2023-08-12T03:38:22;52.97;41.22;65.45;;
41518;Laerm;27249;48.094;-1.690;2023-08-12T03:40:47;48.32;42.41;60.37;;
41518;Laerm;27249;48.094;-1.690;2023-08-12T03:43:13;50.32;42.41;62.05;;
41518;Laerm;27249;48.094;-1.690;2023-08-12T03:45:47;47.66;42.22;62.51;;
41518;Laerm;27249;48.094;-1.690;2023-08-12T03:48:12;48.86;42.71;58.47;;
41518;Laerm;27249;48.094;-1.690;2023-08-12T03:50:39;46.47;42.59;60.15;;
41518;Laerm;27249;48.094;-1.690;2023-08-12T03:53:04;50.05;42.71;60.72;;
41518;Laerm;27249;48.094;-1.690;2023-08-12T03:55:33;51.68;42.76;63.56;;
41518;Laerm;27249;48.094;-1.690;2023-08-12T03:58:01;51.87;42.47;68.73;;
41518;Laerm;27249;48.094;-1.690;2023-08-12T04:00:26;50.48;42.29;67.59;;
41518;Laerm;27249;48.094;-1.690;2023-08-12T04:02:52;52.70;42.41;71.89;;
41518;Laerm;27249;48.094;-1.690;2023-08-12T04:05:17;48.19;42.41;59.38;;
41518;Laerm;27249;48.094;-1.690;2023-08-12T04:07:42;53.86;42.82;75.69;;
41518;Laerm;27249;48.094;-1.690;2023-08-12T04:10:08;54.62;42.22;68.09;;
41518;Laerm;27249;48.094;-1.690;2023-08-12T04:12:33;50.73;42.03;66.51;;
41518;Laerm;27249;48.094;-1.690;2023-08-12T04:14:58;51.72;42.47;68.38;;
41518;Laerm;27249;48.094;-1.690;2023-08-12T04:17:25;54.62;42.03;73.45;;
41518;Laerm;27249;48.094;-1.690;2023-08-12T04:19:50;50.71;42.53;62.60;;
41518;Laerm;27249;48.094;-1.690;2023-08-12T04:22:15;53.85;42.76;70.16;;
41518;Laerm;27249;48.094;-1.690;2023-08-12T04:24:41;52.96;43.04;66.04;;
41518;Laerm;27249;48.094;-1.690;2023-08-12T04:27:07;58.65;43.09;81.26;;
41518;Laerm;27249;48.094;-1.690;2023-08-12T04:29:32;56.32;42.82;74.82;;
41518;Laerm;27249;48.094;-1.690;2023-08-12T04:31:57;53.15;42.93;65.68;;
41518;Laerm;27249;48.094;-1.690;2023-08-12T04:34:22;50.86;42.93;61.65;;
41518;Laerm;27249;48.094;-1.690;2023-08-12T04:36:47;51.20;43.14;70.83;;
41518;Laerm;27249;48.094;-1.690;2023-08-12T04:39:13;54.39;42.71;78.42;;
41518;Laerm;27249;48.094;-1.690;2023-08-12T04:41:38;46.97;42.64;56.46;;
41518;Laerm;27249;48.094;-1.690;2023-08-12T04:44:04;53.41;43.54;68.96;;
41518;Laerm;27249;48.094;-1.690;2023-08-12T04:46:29;54.09;43.68;74.43;;
41518;Laerm;27249;48.094;-1.690;2023-08-12T04:48:54;54.94;42.90;69.57;;
41518;Laerm;27249;48.094;-1.690;2023-08-12T04:51:19;57.32;43.04;74.59;;
41518;Laerm;27249;48.094;-1.690;2023-08-12T04:53:45;54.80;43.09;72.03;;
41518;Laerm;27249;48.094;-1.690;2023-08-12T04:56:10;55.87;43.09;76.64;;
41518;Laerm;27249;48.094;-1.690;2023-08-12T04:58:35;50.53;43.63;60.63;;
41518;Laerm;27249;48.094;-1.690;2023-08-12T05:01:01;54.81;44.11;70.65;;
41518;Laerm;27249;48.094;-1.690;2023-08-12T05:03:26;52.23;43.77;64.97;;
41518;Laerm;27249;48.094;-1.690;2023-08-12T05:05:51;51.53;42.98;66.60;;
41518;Laerm;27249;48.094;-1.690;2023-08-12T05:08:17;49.65;43.29;59.95;;
41518;Laerm;27249;48.094;-1.690;2023-08-12T05:10:42;47.66;42.88;62.07;;
41518;Laerm;27249;48.094;-1.690;2023-08-12T05:13:08;48.14;42.53;58.05;;
41518;Laerm;27249;48.094;-1.690;2023-08-12T05:15:33;51.50;42.98;61.94;;
41518;Laerm;27249;48.094;-1.690;2023-08-12T05:17:58;52.94;43.09;64.53;;
41518;Laerm;27249;48.094;-1.690;2023-08-12T05:20:23;54.36;43.81;72.48;;
41518;Laerm;27249;48.094;-1.690;2023-08-12T05:22:48;51.26;43.34;60.33;;
41518;Laerm;27249;48.094;-1.690;2023-08-12T05:25:14;53.36;43.29;64.71;;
41518;Laerm;27249;48.094;-1.690;2023-08-12T05:27:39;53.46;43.44;66.12;;
41518;Laerm;27249;48.094;-1.690;2023-08-12T05:30:04;47.95;42.98;68.85;;
41518;Laerm;27249;48.094;-1.690;2023-08-12T05:32:30;52.38;43.81;64.23;;
41518;Laerm;27249;48.094;-1.690;2023-08-12T05:34:55;51.59;42.93;67.23;;
41518;Laerm;27249;48.094;-1.690;2023-08-12T05:37:20;51.69;42.76;68.51;;
41518;Laerm;27249;48.094;-1.690;2023-08-12T05:39:46;54.11;42.76;68.97;;
41518;Laerm;27249;48.094;-1.690;2023-08-12T05:42:11;52.90;43.29;67.28;;
41518;Laerm;27249;48.094;-1.690;2023-08-12T05:44:36;52.17;42.22;64.56;;
41518;Laerm;27249;48.094;-1.690;2023-08-12T05:47:01;53.34;43.94;61.62;;
41518;Laerm;27249;48.094;-1.690;2023-08-12T05:49:26;53.23;42.88;67.03;;
41518;Laerm;27249;48.094;-1.690;2023-08-12T05:51:52;51.63;43.09;68.55;;
41518;Laerm;27249;48.094;-1.690;2023-08-12T05:54:17;50.99;42.76;59.59;;
41518;Laerm;27249;48.094;-1.690;2023-08-12T05:56:42;49.05;42.98;58.82;;
41518;Laerm;27249;48.094;-1.690;2023-08-12T05:59:07;52.19;43.04;60.29;;
41518;Laerm;27249;48.094;-1.690;2023-08-12T06:01:33;53.55;43.99;66.56;;
41518;Laerm;27249;48.094;-1.690;2023-08-12T06:03:58;52.20;43.49;61.76;;
41518;Laerm;27249;48.094;-1.690;2023-08-12T06:06:23;52.05;43.68;68.68;;
41518;Laerm;27249;48.094;-1.690;2023-08-12T06:08:48;54.79;42.47;70.50;;
41518;Laerm;27249;48.094;-1.690;2023-08-12T06:11:14;52.79;42.93;69.17;;
41518;Laerm;27249;48.094;-1.690;2023-08-12T06:13:39;51.57;43.39;60.36;;
41518;Laerm;27249;48.094;-1.690;2023-08-12T06:16:04;54.08;45.54;62.67;;
41518;Laerm;27249;48.094;-1.690;2023-08-12T06:18:29;51.60;43.29;65.98;;
41518;Laerm;27249;48.094;-1.690;2023-08-12T06:20:55;52.00;43.39;62.83;;
41518;Laerm;27249;48.094;-1.690;2023-08-12T06:23:20;50.29;42.90;60.68;;
41518;Laerm;27249;48.094;-1.690;2023-08-12T06:25:45;52.16;43.04;60.95;;
41518;Laerm;27249;48.094;-1.690;2023-08-12T06:28:10;53.15;45.01;60.87;;
41518;Laerm;27249;48.094;-1.690;2023-08-12T06:30:36;50.38;44.07;60.93;;
41518;Laerm;27249;48.094;-1.690;2023-08-12T06:33:01;53.10;43.90;61.47;;
41518;Laerm;27249;48.094;-1.690;2023-08-12T06:35:26;54.98;44.69;65.91;;
41518;Laerm;27249;48.094;-1.690;2023-08-12T06:37:51;54.18;45.27;71.43;;
41518;Laerm;27249;48.094;-1.690;2023-08-12T06:40:17;52.91;44.23;66.89;;
41518;Laerm;27249;48.094;-1.690;2023-08-12T06:42:42;53.85;44.54;64.09;;
41518;Laerm;27249;48.094;-1.690;2023-08-12T06:45:08;53.73;43.77;68.82;;
41518;Laerm;27249;48.094;-1.690;2023-08-12T06:47:33;55.45;46.43;68.94;;
41518;Laerm;27249;48.094;-1.690;2023-08-12T06:49:58;54.61;44.51;65.41;;
41518;Laerm;27249;48.094;-1.690;2023-08-12T06:52:24;53.33;43.94;67.32;;
41518;Laerm;27249;48.094;-1.690;2023-08-12T06:54:49;56.73;44.94;68.43;;
41518;Laerm;27249;48.094;-1.690;2023-08-12T06:57:14;53.32;46.50;66.91;;
41518;Laerm;27249;48.094;-1.690;2023-08-12T06:59:39;54.33;45.11;66.16;;
41518;Laerm;27249;48.094;-1.690;2023-08-12T07:02:06;55.71;47.83;63.60;;
41518;Laerm;27249;48.094;-1.690;2023-08-12T07:04:31;55.42;45.20;67.28;;
41518;Laerm;27249;48.094;-1.690;2023-08-12T07:06:56;53.95;45.04;66.47;;
41518;Laerm;27249;48.094;-1.690;2023-08-12T07:09:21;52.45;44.11;70.43;;
41518;Laerm;27249;48.094;-1.690;2023-08-12T07:11:47;53.75;46.40;61.37;;
41518;Laerm;27249;48.094;-1.690;2023-08-12T07:14:12;54.97;45.80;65.97;;
41518;Laerm;27249;48.094;-1.690;2023-08-12T07:16:37;56.75;45.48;70.45;;
41518;Laerm;27249;48.094;-1.690;2023-08-12T07:19:03;56.07;47.41;68.78;;
41518;Laerm;27249;48.094;-1.690;2023-08-12T07:21:28;56.54;46.18;67.98;;
41518;Laerm;27249;48.094;-1.690;2023-08-12T07:23:53;53.85;46.23;67.76;;
41518;Laerm;27249;48.094;-1.690;2023-08-12T07:26:19;54.93;47.54;61.41;;
41518;Laerm;27249;48.094;-1.690;2023-08-12T07:28:44;53.81;46.95;60.71;;
41518;Laerm;27249;48.094;-1.690;2023-08-12T07:31:09;54.98;48.60;61.29;;
41518;Laerm;27249;48.094;-1.690;2023-08-12T07:33:34;53.52;44.69;62.70;;
41518;Laerm;27249;48.094;-1.690;2023-08-12T07:36:00;53.89;46.13;63.60;;
41518;Laerm;27249;48.094;-1.690;2023-08-12T07:38:25;52.59;45.30;59.47;;
41518;Laerm;27249;48.094;-1.690;2023-08-12T07:40:50;54.85;46.40;62.72;;
41518;Laerm;27249;48.094;-1.690;2023-08-12T07:43:15;54.72;47.26;62.73;;
41518;Laerm;27249;48.094;-1.690;2023-08-12T07:45:40;53.64;48.49;67.02;;
41518;Laerm;27249;48.094;-1.690;2023-08-12T07:48:06;58.31;49.88;77.99;;
41518;Laerm;27249;48.094;-1.690;2023-08-12T07:50:31;57.17;48.74;68.87;;
41518;Laerm;27249;48.094;-1.690;2023-08-12T07:52:56;56.03;48.02;64.58;;
41518;Laerm;27249;48.094;-1.690;2023-08-12T07:55:21;54.94;48.77;63.83;;
41518;Laerm;27249;48.094;-1.690;2023-08-12T07:57:47;54.07;45.75;61.39;;
41518;Laerm;27249;48.094;-1.690;2023-08-12T08:00:12;54.45;48.25;64.49;;
41518;Laerm;27249;48.094;-1.690;2023-08-12T08:02:37;56.49;49.46;70.13;;
41518;Laerm;27249;48.094;-1.690;2023-08-12T08:05:03;54.26;46.59;62.22;;
41518;Laerm;27249;48.094;-1.690;2023-08-12T08:07:28;54.96;47.26;61.87;;
41518;Laerm;27249;48.094;-1.690;2023-08-12T08:09:54;54.80;49.00;61.53;;
41518;Laerm;27249;48.094;-1.690;2023-08-12T08:12:19;54.58;46.71;66.23;;
41518;Laerm;27249;48.094;-1.690;2023-08-12T08:14:44;54.67;45.39;67.15;;
41518;Laerm;27249;48.094;-1.690;2023-08-12T08:17:09;55.41;46.15;73.29;;
41518;Laerm;27249;48.094;-1.690;2023-08-12T08:19:35;58.85;47.77;73.13;;
41518;Laerm;27249;48.094;-1.690;2023-08-12T08:22:00;55.00;45.36;68.52;;
41518;Laerm;27249;48.094;-1.690;2023-08-12T08:24:25;54.67;47.80;64.64;;
41518;Laerm;27249;48.094;-1.690;2023-08-12T08:26:50;54.08;44.87;64.44;;
41518;Laerm;27249;48.094;-1.690;2023-08-12T08:29:16;56.01;45.75;69.68;;
41518;Laerm;27249;48.094;-1.690;2023-08-12T08:31:41;58.12;49.12;72.06;;
41518;Laerm;27249;48.094;-1.690;2023-08-12T08:34:06;55.26;46.43;67.90;;
41518;Laerm;27249;48.094;-1.690;2023-08-12T08:36:31;54.78;46.71;70.90;;
41518;Laerm;27249;48.094;-1.690;2023-08-12T08:38:57;56.43;48.96;68.10;;
41518;Laerm;27249;48.094;-1.690;2023-08-12T08:41:22;55.70;46.35;69.02;;
41518;Laerm;27249;48.094;-1.690;2023-08-12T08:43:48;65.23;48.48;84.92;;
41518;Laerm;27249;48.094;-1.690;2023-08-12T08:46:15;55.57;47.26;65.17;;
41518;Laerm;27249;48.094;-1.690;2023-08-12T08:48:41;55.05;47.22;69.64;;
41518;Laerm;27249;48.094;-1.690;2023-08-12T08:51:07;55.82;47.02;70.74;;
41518;Laerm;27249;48.094;-1.690;2023-08-12T08:53:35;55.58;46.87;70.89;;
41518;Laerm;27249;48.094;-1.690;2023-08-12T08:56:01;55.95;48.88;68.59;;
41518;Laerm;27249;48.094;-1.690;2023-08-12T08:58:26;54.99;47.84;67.50;;
41518;Laerm;27249;48.094;-1.690;2023-08-12T09:00:51;54.83;47.44;66.74;;
41518;Laerm;27249;48.094;-1.690;2023-08-12T09:03:17;54.61;48.00;64.63;;
41518;Laerm;27249;48.094;-1.690;2023-08-12T09:05:42;55.94;47.95;64.72;;
41518;Laerm;27249;48.094;-1.690;2023-08-12T09:08:08;55.74;47.10;65.90;;
41518;Laerm;27249;48.094;-1.690;2023-08-12T09:10:36;55.60;48.69;65.71;;
41518;Laerm;27249;48.094;-1.690;2023-08-12T09:13:01;54.35;47.79;65.46;;
41518;Laerm;27249;48.094;-1.690;2023-08-12T09:15:27;55.12;46.62;65.72;;
41518;Laerm;27249;48.094;-1.690;2023-08-12T09:17:52;57.14;49.98;67.61;;
41518;Laerm;27249;48.094;-1.690;2023-08-12T09:20:17;54.07;44.69;63.97;;
41518;Laerm;27249;48.094;-1.690;2023-08-12T09:22:43;55.29;47.76;69.05;;
41518;Laerm;27249;48.094;-1.690;2023-08-12T09:25:09;54.23;45.99;65.58;;
41518;Laerm;27249;48.094;-1.690;2023-08-12T09:27:35;55.25;47.84;70.30;;
41518;Laerm;27249;48.094;-1.690;2023-08-12T09:30:02;54.93;45.69;68.63;;
41518;Laerm;27249;48.094;-1.690;2023-08-12T09:32:28;55.03;49.43;64.95;;
41518;Laerm;27249;48.094;-1.690;2023-08-12T09:34:54;58.12;46.84;73.03;;
41518;Laerm;27249;48.094;-1.690;2023-08-12T09:37:19;57.57;48.43;73.77;;
41518;Laerm;27249;48.094;-1.690;2023-08-12T09:39:46;55.20;45.54;68.94;;
41518;Laerm;27249;48.094;-1.690;2023-08-12T09:42:11;55.60;48.39;69.19;;
41518;Laerm;27249;48.094;-1.690;2023-08-12T09:44:37;55.39;47.10;65.22;;
41518;Laerm;27249;48.094;-1.690;2023-08-12T09:47:02;53.51;43.72;60.61;;
41518;Laerm;27249;48.094;-1.690;2023-08-12T09:49:28;56.61;47.57;65.50;;
41518;Laerm;27249;48.094;-1.690;2023-08-12T09:51:53;52.79;45.72;61.51;;
41518;Laerm;27249;48.094;-1.690;2023-08-12T09:54:18;55.46;47.79;68.57;;
41518;Laerm;27249;48.094;-1.690;2023-08-12T09:56:46;56.70;50.54;67.41;;
41518;Laerm;27249;48.094;-1.690;2023-08-12T09:59:11;54.75;47.54;65.79;;
41518;Laerm;27249;48.094;-1.690;2023-08-12T10:01:37;54.92;48.85;62.08;;
41518;Laerm;27249;48.094;-1.690;2023-08-12T10:04:03;54.23;46.82;65.80;;
41518;Laerm;27249;48.094;-1.690;2023-08-12T10:06:30;54.56;46.20;63.30;;
41518;Laerm;27249;48.094;-1.690;2023-08-12T10:08:56;54.76;47.57;65.34;;
41518;Laerm;27249;48.094;-1.690;2023-08-12T10:11:22;54.89;48.26;67.30;;
41518;Laerm;27249;48.094;-1.690;2023-08-12T10:13:47;55.51;48.94;62.05;;
41518;Laerm;27249;48.094;-1.690;2023-08-12T10:16:13;55.18;48.08;64.79;;
41518;Laerm;27249;48.094;-1.690;2023-08-12T10:18:39;55.99;48.92;65.54;;
41518;Laerm;27249;48.094;-1.690;2023-08-12T10:21:05;61.86;47.50;79.75;;
41518;Laerm;27249;48.094;-1.690;2023-08-12T10:23:33;65.93;47.20;84.26;;
41518;Laerm;27249;48.094;-1.690;2023-08-12T10:25:58;56.91;49.75;71.95;;
41518;Laerm;27249;48.094;-1.690;2023-08-12T10:28:24;56.02;47.67;70.87;;
41518;Laerm;27249;48.094;-1.690;2023-08-12T10:30:50;53.81;46.90;62.93;;
41518;Laerm;27249;48.094;-1.690;2023-08-12T10:33:16;56.12;47.20;72.56;;
41518;Laerm;27249;48.094;-1.690;2023-08-12T10:38:16;56.34;48.32;74.55;;
41518;Laerm;27249;48.094;-1.690;2023-08-12T10:40:41;53.79;44.69;67.77;;
41518;Laerm;27249;48.094;-1.690;2023-08-12T10:43:07;56.00;49.21;67.02;;
41518;Laerm;27249;48.094;-1.690;2023-08-12T10:45:42;56.11;47.12;65.31;;
41518;Laerm;27249;48.094;-1.690;2023-08-12T10:50:34;54.57;44.80;62.88;;
41518;Laerm;27249;48.094;-1.690;2023-08-12T10:52:59;54.25;46.80;60.86;;
41518;Laerm;27249;48.094;-1.690;2023-08-12T10:55:47;53.62;46.29;65.89;;
41518;Laerm;27249;48.094;-1.690;2023-08-12T10:58:14;55.53;45.23;68.60;;
41518;Laerm;27249;48.094;-1.690;2023-08-12T11:00:51;52.71;44.27;63.45;;
41518;Laerm;27249;48.094;-1.690;2023-08-12T11:03:18;54.63;45.75;62.56;;
41518;Laerm;27249;48.094;-1.690;2023-08-12T11:05:43;54.14;45.30;64.08;;
41518;Laerm;27249;48.094;-1.690;2023-08-12T11:08:09;55.11;46.25;61.55;;
41518;Laerm;27249;48.094;-1.690;2023-08-12T11:10:38;56.42;47.81;66.48;;
41518;Laerm;27249;48.094;-1.690;2023-08-12T11:13:03;53.97;45.70;59.95;;
41518;Laerm;27249;48.094;-1.690;2023-08-12T11:15:47;55.42;47.17;64.25;;
41518;Laerm;27249;48.094;-1.690;2023-08-12T11:18:19;54.50;46.43;63.25;;
41518;Laerm;27249;48.094;-1.690;2023-08-12T11:20:46;55.70;47.95;66.34;;
41518;Laerm;27249;48.094;-1.690;2023-08-12T11:23:12;54.89;47.48;64.50;;
41518;Laerm;27249;48.094;-1.690;2023-08-12T11:25:38;56.70;47.08;68.98;;
41518;Laerm;27249;48.094;-1.690;2023-08-12T11:28:04;56.48;47.46;75.02;;
41518;Laerm;27249;48.094;-1.690;2023-08-12T11:30:29;54.82;45.14;64.33;;
41518;Laerm;27249;48.094;-1.690;2023-08-12T11:32:54;54.87;48.03;64.03;;
41518;Laerm;27249;48.094;-1.690;2023-08-12T11:35:21;54.69;48.94;62.99;;
41518;Laerm;27249;48.094;-1.690;2023-08-12T11:37:48;54.59;45.51;68.83;;
41518;Laerm;27249;48.094;-1.690;2023-08-12T11:40:14;55.31;47.06;63.36;;
41518;Laerm;27249;48.094;-1.690;2023-08-12T11:42:40;54.90;45.54;69.45;;
41518;Laerm;27249;48.094;-1.690;2023-08-12T11:45:06;56.18;49.10;66.99;;
41518;Laerm;27249;48.094;-1.690;2023-08-12T11:47:32;56.95;47.68;69.47;;
41518;Laerm;27249;48.094;-1.690;2023-08-12T11:49:57;55.22;46.55;61.42;;
41518;Laerm;27249;48.094;-1.690;2023-08-12T11:52:23;55.73;47.52;68.15;;
41518;Laerm;27249;48.094;-1.690;2023-08-12T11:54:48;56.64;47.52;68.66;;
41518;Laerm;27249;48.094;-1.690;2023-08-12T11:57:14;64.99;47.57;81.78;;
41518;Laerm;27249;48.094;-1.690;2023-08-12T11:59:39;55.82;45.80;71.35;;
41518;Laerm;27249;48.094;-1.690;2023-08-12T12:02:04;55.21;46.07;71.40;;
41518;Laerm;27249;48.094;-1.690;2023-08-12T12:04:33;56.85;45.60;67.78;;
41518;Laerm;27249;48.094;-1.690;2023-08-12T12:06:59;56.47;46.48;69.33;;
41518;Laerm;27249;48.094;-1.690;2023-08-12T12:09:25;53.94;45.97;70.96;;
41518;Laerm;27249;48.094;-1.690;2023-08-12T12:11:54;54.76;47.26;63.95;;
41518;Laerm;27249;48.094;-1.690;2023-08-12T12:14:20;55.62;48.88;66.36;;
41518;Laerm;27249;48.094;-1.690;2023-08-12T12:16:46;56.17;48.32;66.74;;
41518;Laerm;27249;48.094;-1.690;2023-08-12T12:19:18;58.77;47.55;74.09;;
41518;Laerm;27249;48.094;-1.690;2023-08-12T12:21:50;57.07;48.19;70.68;;
41518;Laerm;27249;48.094;-1.690;2023-08-12T12:24:15;55.24;44.94;75.34;;
41518;Laerm;27249;48.094;-1.690;2023-08-12T12:26:41;57.36;48.43;74.70;;
41518;Laerm;27249;48.094;-1.690;2023-08-12T12:29:07;55.72;48.16;68.86;;
41518;Laerm;27249;48.094;-1.690;2023-08-12T12:31:32;56.30;44.39;68.26;;
41518;Laerm;27249;48.094;-1.690;2023-08-12T12:33:58;54.31;48.23;64.43;;
41518;Laerm;27249;48.094;-1.690;2023-08-12T12:36:24;57.66;48.58;79.34;;
41518;Laerm;27249;48.094;-1.690;2023-08-12T12:38:49;56.18;48.99;67.80;;
41518;Laerm;27249;48.094;-1.690;2023-08-12T12:41:14;54.02;45.42;66.40;;
41518;Laerm;27249;48.094;-1.690;2023-08-12T12:43:39;56.90;46.15;79.19;;
41518;Laerm;27249;48.094;-1.690;2023-08-12T12:46:05;55.93;46.48;69.40;;
41518;Laerm;27249;48.094;-1.690;2023-08-12T12:48:30;55.78;46.43;68.23;;
41518;Laerm;27249;48.094;-1.690;2023-08-12T12:50:55;57.43;48.64;74.85;;
41518;Laerm;27249;48.094;-1.690;2023-08-12T12:53:20;56.84;45.45;72.58;;
41518;Laerm;27249;48.094;-1.690;2023-08-12T12:55:46;56.31;46.62;75.21;;
41518;Laerm;27249;48.094;-1.690;2023-08-12T12:58:11;55.54;45.99;73.53;;
41518;Laerm;27249;48.094;-1.690;2023-08-12T13:00:36;54.64;46.76;67.56;;
41518;Laerm;27249;48.094;-1.690;2023-08-12T13:03:01;61.50;50.54;84.41;;
41518;Laerm;27249;48.094;-1.690;2023-08-12T13:05:27;59.04;48.98;78.48;;
41518;Laerm;27249;48.094;-1.690;2023-08-12T13:07:52;58.01;47.88;75.14;;
41518;Laerm;27249;48.094;-1.690;2023-08-12T13:10:18;57.94;48.29;74.19;;
41518;Laerm;27249;48.094;-1.690;2023-08-12T13:12:43;58.34;48.85;81.28;;
41518;Laerm;27249;48.094;-1.690;2023-08-12T13:15:08;55.05;46.30;69.05;;
41518;Laerm;27249;48.094;-1.690;2023-08-12T13:17:33;58.14;48.26;78.50;;
41518;Laerm;27249;48.094;-1.690;2023-08-12T13:19:59;56.50;46.80;78.62;;
41518;Laerm;27249;48.094;-1.690;2023-08-12T13:22:24;57.60;46.93;73.96;;
41518;Laerm;27249;48.094;-1.690;2023-08-12T13:24:49;60.32;48.45;80.72;;
41518;Laerm;27249;48.094;-1.690;2023-08-12T13:27:14;58.29;49.06;78.58;;
41518;Laerm;27249;48.094;-1.690;2023-08-12T13:29:42;57.37;47.26;71.71;;
41518;Laerm;27249;48.094;-1.690;2023-08-12T13:32:07;56.64;47.96;70.07;;